Terminal Aerodrome Forecast
Issued by NWS Boston, MA

Current Version | Previous Version | Text Only | Print | Product List | Glossary On
Versions: 1 2 3 4 5 6 7 8 9 10 11 12 13 14 15 16 17 18 19 20 21
000 FTUS41 KBOX 200844 AAA TAFBDL TAF AMD KBDL 200844Z 2009/2112 01006KT P6SM SCT250 FM201500 07005KT P6SM FEW250 FM201700 13006KT P6SM FEW250 FM210000 18010KT P6SM SCT250 FM210300 18006KT P6SM FEW250 FM210600 00000KT P6SM FEW250=

USA.gov is the U.S. government's official web portal to all federal, state and local government web resources and services.